Elmira Corning Regional Airport Elmira,Corning US
ICAO: KELM
IATA: ELM
Category: Medium
Scheduled Services: Yes

Elevation: 954 ft
TransAlt. 18000 ft.

Airport Communications:
APP/DEP:119.45
ATIS:125.475
CLNC DEL:121.9
CTAF:122.4
GND/CLNC DEL:121.9
BUFFALO RDO:122.2
TWR:121.1
UNICOM:122.95

KELM Zoom In..

Runways:

(A) RW 05 length 2017 ft width 150 ft
---- / hdg 62

(B) RW 06 length 8001 ft width 150 ft
ILS 109.10 / hdg 62

(C) RW 10 length 5404 ft width 150 ft
---- / hdg 101

(D) RW 23 length 2017 ft width 150 ft
---- / hdg 242

(E) RW 24 length 8001 ft width 150 ft
ILS 109.10 / hdg 242

(F) RW 28 length 5404 ft width 150 ft
---- / hdg 281

Location; KELM
Day. 22 / Time. 01.53 Zulu
* Altimeter: 30.15
* Temperature: 13° c. 55.4°f.
* Wind from: 300° Speed 04 kn.
Dewpoint: 09° c.
Visibility: 10 Statute Miles.
Clouds: Clear (automated report).

KELM 220153Z 30004KT 10SM CLR 13/09 A3015 RMK AO2 SLP208 T01330094


Wind From 300°
Speed 04 kn.

 
 
jpsmedia.com for Web Design SOUNDCLOUD worldairports.se 2018   terms of use